Time;durP1;ratioP1;P1;durP2;ratioP2;P2;SDS_P1;SDS_P2;PMS_P1;PMS_P2;Temp;Humidity;BMP_temperature;BMP_pressure;BME280_temperature;BME280_humidity;BME280_pressure;Samples;Min_cycle;Max_cycle;Signal;HPM_P1;HPM_P2
2023/06/22 00:02:36;;;;;;;11.17;7.20;;;18.90;99.90;;;;;;4363650;28;657982;-68
2023/06/22 00:05:23;;;;;;;13.57;7.13;;;18.90;99.90;;;;;;4385563;28;658036;-68
2023/06/22 00:08:10;;;;;;;12.10;7.10;;;18.80;99.90;;;;;;4365991;28;657209;-68
2023/06/22 00:10:59;;;;;;;12.97;7.63;;;18.80;99.90;;;;;;4385624;28;658910;-67
2023/06/22 00:13:47;;;;;;;13.63;7.87;;;18.80;99.90;;;;;;4356794;28;658234;-68
2023/06/22 00:16:34;;;;;;;13.60;6.87;;;18.80;99.90;;;;;;4381057;28;657608;-68
2023/06/22 00:19:21;;;;;;;14.52;6.70;;;18.80;99.90;;;;;;4362191;28;658458;-68
2023/06/22 00:22:08;;;;;;;15.20;6.87;;;18.90;99.90;;;;;;4382305;28;658305;-68
2023/06/22 00:24:56;;;;;;;12.00;5.57;;;19.10;99.90;;;;;;4361511;28;657799;-68
2023/06/22 00:27:45;;;;;;;11.77;5.43;;;19.20;99.90;;;;;;4385072;28;659061;-68
2023/06/22 00:30:32;;;;;;;12.70;5.63;;;19.30;99.90;;;;;;4346831;28;659277;-67
2023/06/22 00:33:19;;;;;;;15.63;5.80;;;19.40;99.90;;;;;;4379898;28;657016;-68
2023/06/22 00:36:07;;;;;;;11.70;5.60;;;19.40;99.90;;;;;;4356832;28;657726;-68
2023/06/22 00:38:54;;;;;;;9.83;6.47;;;19.40;99.90;;;;;;4388341;28;658135;-68
2023/06/22 00:41:41;;;;;;;14.87;5.83;;;19.40;99.90;;;;;;4357396;28;656958;-68
2023/06/22 00:44:30;;;;;;;16.50;6.87;;;19.40;99.90;;;;;;4378056;28;659914;-68
2023/06/22 00:47:18;;;;;;;10.93;6.33;;;19.40;99.90;;;;;;4352327;28;658606;-68
2023/06/22 00:50:06;;;;;;;15.53;6.20;;;19.30;99.90;;;;;;4362906;28;658062;-68
2023/06/22 00:52:56;;;;;;;15.47;6.33;;;19.40;99.90;;;;;;4386631;28;658090;-67
2023/06/22 00:55:45;;;;;;;12.23;5.70;;;19.20;99.90;;;;;;4364113;28;658976;-67
2023/06/22 00:58:32;;;;;;;14.97;5.40;;;19.20;99.90;;;;;;4358503;28;659439;-68
2023/06/22 01:01:23;;;;;;;10.37;5.53;;;19.20;99.90;;;;;;4387230;28;657624;-67
2023/06/22 01:04:11;;;;;;;17.23;6.40;;;19.20;99.90;;;;;;4329785;28;657692;-69
2023/06/22 01:07:04;;;;;;;11.40;5.77;;;19.20;99.90;;;;;;4378966;28;657835;-69
2023/06/22 01:09:57;;;;;;;23.00;7.07;;;19.30;99.90;;;;;;4365615;28;657403;-68
2023/06/22 01:12:46;;;;;;;14.47;6.40;;;19.20;99.90;;;;;;4366164;28;657821;-67
2023/06/22 01:15:36;;;;;;;20.83;7.30;;;19.20;99.90;;;;;;4355835;28;658113;-68
2023/06/22 01:18:26;;;;;;;19.10;7.60;;;19.20;99.90;;;;;;4359642;28;659253;-69
2023/06/22 01:21:17;;;;;;;16.10;7.23;;;19.20;99.90;;;;;;4360525;28;658483;-68
2023/06/22 01:24:11;;;;;;;15.50;7.10;;;19.20;99.90;;;;;;4359330;28;658702;-68
2023/06/22 01:27:05;;;;;;;17.27;7.00;;;19.20;99.90;;;;;;4345109;28;658380;-68
2023/06/22 01:30:00;;;;;;;17.00;6.53;;;19.20;99.90;;;;;;4346286;28;657956;-68
2023/06/22 01:32:47;;;;;;;15.07;6.43;;;19.10;99.90;;;;;;4322134;28;660070;-68
2023/06/22 01:35:34;;;;;;;15.07;6.60;;;19.00;99.90;;;;;;4363719;28;658051;-68
2023/06/22 01:38:22;;;;;;;14.60;6.10;;;19.10;99.90;;;;;;4348553;28;657911;-69
2023/06/22 01:41:09;;;;;;;15.53;6.07;;;19.00;99.90;;;;;;4364214;28;658266;-68
2023/06/22 01:43:57;;;;;;;16.07;6.47;;;19.00;99.90;;;;;;4350508;28;658735;-68
2023/06/22 01:46:46;;;;;;;18.33;8.70;;;19.00;99.90;;;;;;4373603;28;658076;-67
2023/06/22 01:49:33;;;;;;;22.57;9.20;;;19.00;99.90;;;;;;4349054;28;657788;-67
2023/06/22 01:52:20;;;;;;;22.77;7.90;;;18.90;99.90;;;;;;4349981;28;658276;-68
2023/06/22 01:55:09;;;;;;;17.13;8.13;;;18.90;99.90;;;;;;4373626;28;658413;-67
2023/06/22 01:57:56;;;;;;;14.60;8.03;;;18.80;99.90;;;;;;4350170;28;657738;-67
2023/06/22 02:00:45;;;;;;;17.87;6.40;;;18.80;99.90;;;;;;4366626;28;657882;-68
2023/06/22 02:03:36;;;;;;;15.83;6.67;;;18.80;99.90;;;;;;4344077;28;658750;-68
2023/06/22 02:06:38;;;;;;;18.53;5.80;;;18.80;99.90;;;;;;4343186;28;658940;-68
2023/06/22 02:09:26;;;;;;;14.37;5.50;;;18.70;99.90;;;;;;4326097;28;658255;-67
2023/06/22 02:12:14;;;;;;;13.20;5.80;;;18.70;99.90;;;;;;4367677;28;657780;-68
2023/06/22 02:15:01;;;;;;;13.07;5.40;;;18.70;99.90;;;;;;4347935;28;657687;-67
2023/06/22 02:17:48;;;;;;;11.37;5.20;;;18.70;99.90;;;;;;4406638;28;659033;-68
2023/06/22 02:20:39;;;;;;;13.33;4.90;;;18.70;99.90;;;;;;4360190;28;657366;-68
2023/06/22 02:23:26;;;;;;;13.00;5.17;;;18.70;99.90;;;;;;4345758;28;657638;-68
2023/06/22 02:26:13;;;;;;;17.53;5.63;;;18.60;99.90;;;;;;4377763;28;659093;-68
2023/06/22 02:29:00;;;;;;;15.40;5.00;;;18.60;99.90;;;;;;4362894;28;657985;-68
2023/06/22 02:31:48;;;;;;;13.37;4.70;;;18.50;99.90;;;;;;4388459;28;657671;-67
2023/06/22 02:34:36;;;;;;;13.13;4.63;;;18.50;99.90;;;;;;4366423;28;657768;-69
2023/06/22 02:37:25;;;;;;;14.63;4.40;;;18.50;99.90;;;;;;4380156;28;659300;-68
2023/06/22 02:40:12;;;;;;;16.65;5.03;;;18.50;99.90;;;;;;4364536;28;659190;-68
2023/06/22 02:43:02;;;;;;;14.17;4.70;;;18.50;99.90;;;;;;4384764;28;657650;-68
2023/06/22 02:45:49;;;;;;;16.93;4.83;;;18.50;99.90;;;;;;4366178;28;657859;-68
2023/06/22 02:48:36;;;;;;;15.87;5.13;;;18.40;99.90;;;;;;4366495;28;657868;-68
2023/06/22 02:51:23;;;;;;;17.87;5.30;;;18.50;99.90;;;;;;4383264;28;658932;-67
2023/06/22 02:54:12;;;;;;;12.80;5.23;;;18.40;99.90;;;;;;4357160;28;659070;-68
2023/06/22 02:57:02;;;;;;;14.77;5.23;;;18.30;99.90;;;;;;4385956;28;658338;-68
2023/06/22 02:59:49;;;;;;;13.07;4.70;;;18.20;99.90;;;;;;4359462;28;657534;-67
2023/06/22 03:02:36;;;;;;;13.03;4.90;;;18.30;99.90;;;;;;4365218;28;657796;-68
2023/06/22 03:05:24;;;;;;;11.23;5.10;;;18.20;99.90;;;;;;4384691;28;658068;-68
2023/06/22 03:08:11;;;;;;;17.10;4.80;;;18.20;99.90;;;;;;4363657;28;657550;-68
2023/06/22 03:11:00;;;;;;;15.77;4.80;;;18.20;99.90;;;;;;4377988;28;659936;-68
2023/06/22 03:13:47;;;;;;;11.47;4.67;;;18.20;99.90;;;;;;4363891;28;658258;-68
2023/06/22 03:16:34;;;;;;;15.20;5.03;;;18.20;99.90;;;;;;4383944;28;658733;-68
2023/06/22 03:19:22;;;;;;;10.38;4.93;;;18.20;99.90;;;;;;4362744;28;658061;-67
2023/06/22 03:22:09;;;;;;;14.00;5.10;;;18.20;99.90;;;;;;4386159;28;657810;-68
2023/06/22 03:24:56;;;;;;;15.27;5.20;;;18.20;99.90;;;;;;4360327;28;657840;-68
2023/06/22 03:27:45;;;;;;;14.73;5.50;;;18.20;99.90;;;;;;4381691;28;658907;-68
2023/06/22 03:30:32;;;;;;;15.97;5.50;;;18.20;99.90;;;;;;4355201;28;658678;-67
2023/06/22 03:33:19;;;;;;;10.97;5.40;;;18.20;99.90;;;;;;4386601;28;658025;-67
2023/06/22 03:36:07;;;;;;;13.87;5.20;;;18.20;99.90;;;;;;4359286;28;657924;-68
2023/06/22 03:38:54;;;;;;;13.23;4.60;;;18.30;99.90;;;;;;4382955;28;657635;-68
2023/06/22 03:41:41;;;;;;;12.73;5.20;;;18.30;99.90;;;;;;4358133;28;657573;-68
2023/06/22 03:44:30;;;;;;;17.33;5.30;;;18.40;99.90;;;;;;4385150;28;658662;-68
2023/06/22 03:47:17;;;;;;;15.57;5.73;;;18.40;99.90;;;;;;4357335;28;658687;-68
2023/06/22 03:50:05;;;;;;;12.87;5.43;;;18.40;99.90;;;;;;4383116;28;657984;-68
2023/06/22 03:52:53;;;;;;;15.87;5.80;;;18.50;99.90;;;;;;4365799;28;658297;-68
2023/06/22 03:55:43;;;;;;;14.20;5.87;;;18.50;99.90;;;;;;4379870;28;658365;-68
2023/06/22 03:58:32;;;;;;;18.70;5.90;;;18.50;99.90;;;;;;4356341;28;658649;-69
2023/06/22 04:01:21;;;;;;;15.97;6.30;;;18.60;99.90;;;;;;4386625;28;657891;-68
2023/06/22 04:04:08;;;;;;;19.50;6.47;;;18.60;99.90;;;;;;4362317;28;658350;-68
2023/06/22 04:06:55;;;;;;;16.03;6.63;;;18.60;99.90;;;;;;4367038;28;658006;-68
2023/06/22 04:09:42;;;;;;;15.77;6.47;;;18.70;99.90;;;;;;4387726;28;657893;-68
2023/06/22 04:12:30;;;;;;;17.90;7.00;;;18.80;99.90;;;;;;4372266;28;657432;-68
2023/06/22 04:15:17;;;;;;;20.67;7.50;;;18.90;99.90;;;;;;4384009;28;657851;-67
2023/06/22 04:18:06;;;;;;;15.87;7.30;;;19.00;99.90;;;;;;4387532;28;657590;-68
2023/06/22 04:20:53;;;;;;;18.37;8.40;;;19.10;99.90;;;;;;4361144;28;658716;-67
2023/06/22 04:23:40;;;;;;;23.53;8.80;;;19.20;99.90;;;;;;4362376;28;657973;-68
2023/06/22 04:26:28;;;;;;;19.97;9.33;;;19.30;99.90;;;;;;4385486;28;658825;-68
2023/06/22 04:29:15;;;;;;;25.43;9.20;;;19.50;99.90;;;;;;4362352;28;657542;-68
2023/06/22 04:32:05;;;;;;;22.47;9.67;;;19.60;99.90;;;;;;4387526;28;658130;-67
2023/06/22 04:34:54;;;;;;;20.40;10.37;;;19.80;99.90;;;;;;4361757;28;659358;-68
2023/06/22 04:37:42;;;;;;;29.10;10.97;;;19.90;99.90;;;;;;4352859;28;659572;-68
2023/06/22 04:40:29;;;;;;;24.53;10.63;;;19.90;99.90;;;;;;4372045;28;659446;-68
2023/06/22 04:43:16;;;;;;;27.90;11.27;;;19.80;99.90;;;;;;4358206;28;658390;-67
2023/06/22 04:46:04;;;;;;;33.83;13.00;;;19.80;99.90;;;;;;4375066;28;659202;-68
2023/06/22 04:48:51;;;;;;;27.47;12.33;;;19.90;99.90;;;;;;4357559;28;659168;-68
2023/06/22 04:51:40;;;;;;;30.43;12.40;;;19.90;99.90;;;;;;4370241;28;659249;-67
2023/06/22 04:54:28;;;;;;;25.33;12.60;;;20.00;99.90;;;;;;4351168;28;661819;-68
2023/06/22 04:57:15;;;;;;;28.07;12.57;;;20.10;99.90;;;;;;4364224;28;660414;-69
2023/06/22 05:00:12;;;;;;;24.57;12.73;;;20.20;99.90;;;;;;4382693;28;660280;-68
2023/06/22 05:03:00;;;;;;;26.57;12.83;;;20.30;99.90;;;;;;4367284;28;659186;-68
2023/06/22 05:05:47;;;;;;;22.53;13.00;;;20.50;99.90;;;;;;4362272;28;658556;-68
2023/06/22 05:08:37;;;;;;;24.53;12.03;;;20.60;99.90;;;;;;4372703;28;658672;-68
2023/06/22 05:11:24;;;;;;;25.20;13.63;;;20.70;99.90;;;;;;4385499;28;658928;-68
2023/06/22 05:14:11;;;;;;;26.60;12.83;;;20.80;99.90;;;;;;4358126;28;659169;-68
2023/06/22 05:17:03;;;;;;;33.53;14.40;;;20.90;99.90;;;;;;4379518;28;659787;-68
2023/06/22 05:19:50;;;;;;;27.30;14.57;;;21.00;99.90;;;;;;4337170;28;659303;-68
2023/06/22 05:22:38;;;;;;;32.97;14.87;;;21.00;99.90;;;;;;4379971;28;660231;-67
2023/06/22 05:25:29;;;;;;;32.83;16.63;;;21.20;99.90;;;;;;4363631;28;658877;-68
2023/06/22 05:28:16;;;;;;;31.03;16.20;;;21.20;99.90;;;;;;4359949;28;658640;-68
2023/06/22 05:31:04;;;;;;;31.43;17.40;;;21.40;99.90;;;;;;4379854;28;658242;-67
2023/06/22 05:33:52;;;;;;;36.27;17.60;;;21.50;99.90;;;;;;4364720;28;658558;-67
2023/06/22 05:36:40;;;;;;;45.87;22.17;;;21.50;99.90;;;;;;4374719;28;659147;-68
2023/06/22 05:39:27;;;;;;;43.07;20.77;;;21.50;99.90;;;;;;4384102;28;659765;-66
2023/06/22 05:42:16;;;;;;;45.63;19.87;;;21.50;99.90;;;;;;4375006;28;659158;-66
2023/06/22 05:45:04;;;;;;;42.97;20.43;;;21.70;99.90;;;;;;4364456;28;660026;-67
2023/06/22 05:47:51;;;;;;;43.60;21.23;;;21.80;99.90;;;;;;4374159;28;658428;-66
2023/06/22 05:50:39;;;;;;;46.30;20.70;;;22.00;99.90;;;;;;4382684;28;659941;-66
2023/06/22 05:53:26;;;;;;;37.30;19.63;;;22.20;99.90;;;;;;4364689;28;658702;-67
2023/06/22 05:56:13;;;;;;;34.73;20.90;;;22.20;99.90;;;;;;4386023;28;659226;-67
2023/06/22 05:59:02;;;;;;;42.60;19.63;;;22.30;99.90;;;;;;4361634;28;658940;-67
2023/06/22 06:01:50;;;;;;;41.33;19.90;;;22.50;99.90;;;;;;4373198;28;658937;-67
2023/06/22 06:04:37;;;;;;;36.03;20.73;;;22.60;99.90;;;;;;4362156;28;659987;-67
2023/06/22 06:07:25;;;;;;;36.63;18.70;;;22.70;99.90;;;;;;4388023;28;658223;-67
2023/06/22 06:10:12;;;;;;;33.77;20.00;;;22.90;99.90;;;;;;4361940;28;659642;-67
2023/06/22 06:13:01;;;;;;;34.97;19.80;;;23.10;99.90;;;;;;4378653;28;659155;-68
2023/06/22 06:15:51;;;;;;;37.93;19.10;;;23.20;99.90;;;;;;4374723;28;658556;-67
2023/06/22 06:18:38;;;;;;;37.93;20.57;;;23.20;99.90;;;;;;4349142;28;659545;-68
2023/06/22 06:21:25;;;;;;;38.77;22.50;;;23.40;99.90;;;;;;4364214;28;659104;-68
2023/06/22 06:24:13;;;;;;;38.67;20.77;;;23.40;99.90;;;;;;4382740;28;659420;-68
2023/06/22 06:27:04;;;;;;;34.28;20.10;;;23.70;99.90;;;;;;4367240;28;660690;-68
2023/06/22 06:29:52;;;;;;;40.53;20.15;;;23.70;99.90;;;;;;4364005;28;659425;-67
2023/06/22 06:32:40;;;;;;;32.33;20.67;;;23.90;99.90;;;;;;4376944;28;659296;-67
2023/06/22 06:35:28;;;;;;;35.80;21.25;;;24.10;99.90;;;;;;4358492;28;660314;-68
2023/06/22 06:38:15;;;;;;;31.63;20.08;;;24.30;99.90;;;;;;4374739;28;658380;-68
2023/06/22 06:41:02;;;;;;;32.20;19.73;;;24.40;99.90;;;;;;4390727;28;659236;-67
2023/06/22 06:43:50;;;;;;;34.60;21.17;;;24.40;99.90;;;;;;4382851;28;658629;-67
2023/06/22 06:46:37;;;;;;;29.48;19.73;;;24.50;99.90;;;;;;4365937;28;659900;-67
2023/06/22 06:49:26;;;;;;;29.95;20.17;;;24.30;99.90;;;;;;4381655;28;658500;-67
2023/06/22 06:52:13;;;;;;;28.67;20.10;;;24.60;99.90;;;;;;4362920;28;659670;-67
2023/06/22 06:55:00;;;;;;;29.38;19.95;;;24.90;99.90;;;;;;4344269;27;659489;-68
2023/06/22 06:57:49;;;;;;;29.05;20.00;;;25.10;99.90;;;;;;4383294;28;659900;-67
2023/06/22 07:00:36;;;;;;;31.60;20.48;;;25.30;99.90;;;;;;4355207;28;658680;-67
2023/06/22 07:03:27;;;;;;;31.30;20.15;;;25.30;99.90;;;;;;4384978;28;658932;-67
2023/06/22 07:06:16;;;;;;;25.77;18.85;;;25.30;99.90;;;;;;4361743;28;659012;-67
2023/06/22 07:09:04;;;;;;;34.67;20.48;;;25.40;99.90;;;;;;4360971;28;660547;-67
2023/06/22 07:11:51;;;;;;;26.80;19.92;;;25.40;99.90;;;;;;4363911;28;659973;-67
2023/06/22 07:14:38;;;;;;;29.65;19.95;;;25.50;99.90;;;;;;4388611;28;659205;-66
2023/06/22 07:17:25;;;;;;;28.02;19.67;;;25.80;99.90;;;;;;4362515;28;659764;-68
2023/06/22 07:20:13;;;;;;;27.05;21.27;;;25.40;99.90;;;;;;4381346;28;660519;-67
2023/06/22 07:23:02;;;;;;;27.33;20.08;;;25.70;99.90;;;;;;4360903;28;658783;-68
2023/06/22 07:25:50;;;;;;;27.50;20.10;;;25.90;99.90;;;;;;4386498;28;658354;-68
2023/06/22 07:28:37;;;;;;;27.25;20.23;;;25.80;99.90;;;;;;4361562;28;660048;-68
2023/06/22 07:31:25;;;;;;;25.48;19.38;;;25.80;99.90;;;;;;4376870;28;659500;-68
2023/06/22 07:34:13;;;;;;;28.38;20.20;;;25.90;99.90;;;;;;4384199;28;659778;-67
2023/06/22 07:37:00;;;;;;;27.05;19.70;;;26.10;99.90;;;;;;4374723;28;658586;-67
2023/06/22 07:39:50;;;;;;;28.67;20.17;;;26.10;99.90;;;;;;4382305;28;659739;-67
2023/06/22 07:42:37;;;;;;;26.75;20.05;;;26.50;99.90;;;;;;4356119;28;660721;-67
2023/06/22 07:45:24;;;;;;;22.98;19.10;;;26.60;99.90;;;;;;4380247;28;659435;-68
2023/06/22 07:48:12;;;;;;;26.38;20.10;;;26.30;99.90;;;;;;4354782;28;658760;-67
2023/06/22 07:51:00;;;;;;;25.67;19.77;;;26.40;99.90;;;;;;4377991;28;659152;-67
2023/06/22 07:53:47;;;;;;;27.15;19.75;;;26.50;99.90;;;;;;4360458;28;659911;-67
2023/06/22 07:56:37;;;;;;;24.38;18.83;;;26.70;99.90;;;;;;4376694;28;658627;-67
2023/06/22 07:59:24;;;;;;;26.45;17.63;;;27.10;99.90;;;;;;4358403;28;659425;-67
2023/06/22 08:02:11;;;;;;;21.98;16.65;;;27.30;99.90;;;;;;4358581;28;659195;-67
2023/06/22 08:04:58;;;;;;;21.42;16.23;;;27.90;99.90;;;;;;4382864;28;657970;-68
2023/06/22 08:07:45;;;;;;;22.40;15.35;;;28.20;99.90;;;;;;4360907;28;659364;-68
2023/06/22 08:10:32;;;;;;;21.50;16.33;;;28.00;99.90;;;;;;4375073;28;659626;-68
2023/06/22 08:13:22;;;;;;;19.58;15.48;;;28.30;99.90;;;;;;4379511;28;658584;-68
2023/06/22 08:16:09;;;;;;;17.80;14.60;;;28.30;99.90;;;;;;4381263;28;658950;-67
2023/06/22 08:18:56;;;;;;;19.45;14.77;;;28.60;99.90;;;;;;4359994;28;659230;-67
2023/06/22 08:21:44;;;;;;;17.17;13.20;;;28.90;99.90;;;;;;4376705;28;659134;-68
2023/06/22 08:24:31;;;;;;;18.90;14.38;;;28.70;99.90;;;;;;4360165;28;658509;-68
2023/06/22 08:27:21;;;;;;;17.35;14.40;;;27.10;99.90;;;;;;4379376;28;660495;-68
2023/06/22 08:30:11;;;;;;;16.48;13.32;;;27.70;99.90;;;;;;4360193;28;659415;-67
2023/06/22 08:32:58;;;;;;;14.80;12.33;;;28.00;99.90;;;;;;4361046;28;660191;-67
2023/06/22 08:35:45;;;;;;;15.50;11.95;;;28.30;99.90;;;;;;4358288;28;659261;-68
2023/06/22 08:38:33;;;;;;;13.15;11.32;;;28.30;99.90;;;;;;4379203;28;660395;-67
2023/06/22 08:41:20;;;;;;;14.07;10.73;;;27.80;99.90;;;;;;4368348;28;659147;-68
2023/06/22 08:44:07;;;;;;;13.65;10.45;;;26.80;99.90;;;;;;4386837;28;658722;-67
2023/06/22 08:46:56;;;;;;;18.55;14.48;;;26.20;99.90;;;;;;4378379;28;658448;-67
2023/06/22 08:49:43;;;;;;;16.95;14.27;;;25.90;99.90;;;;;;4357768;28;659381;-67
2023/06/22 08:52:30;;;;;;;18.58;14.93;;;25.90;99.90;;;;;;4357531;28;658995;-68
2023/06/22 08:55:18;;;;;;;18.00;14.90;;;26.30;99.90;;;;;;4383158;28;661720;-68
2023/06/22 08:58:06;;;;;;;18.38;13.45;;;26.70;99.90;;;;;;4362589;28;659077;-68
2023/06/22 09:00:53;;;;;;;16.23;13.25;;;27.30;99.90;;;;;;4375870;28;659022;-67
2023/06/22 09:03:42;;;;;;;12.75;10.07;;;27.70;99.90;;;;;;4354862;28;659460;-67
2023/06/22 09:06:31;;;;;;;12.70;10.52;;;28.00;99.90;;;;;;4381992;28;659198;-67
2023/06/22 09:09:18;;;;;;;13.60;10.93;;;28.50;99.90;;;;;;4359523;28;658937;-67
2023/06/22 09:12:06;;;;;;;13.38;9.90;;;28.70;99.90;;;;;;4362227;28;659470;-68
2023/06/22 09:14:54;;;;;;;11.70;9.40;;;28.60;99.90;;;;;;4382506;28;658179;-67
2023/06/22 09:17:42;;;;;;;11.23;9.23;;;28.30;99.90;;;;;;4352486;28;657690;-68
2023/06/22 09:20:31;;;;;;;11.10;8.88;;;28.00;99.90;;;;;;4384890;28;658623;-68
2023/06/22 09:23:18;;;;;;;13.50;9.25;;;27.80;99.90;;;;;;4367522;28;657913;-67
2023/06/22 09:26:05;;;;;;;10.88;8.80;;;27.40;99.90;;;;;;4372272;28;658342;-68
2023/06/22 09:28:53;;;;;;;11.55;8.63;;;27.80;99.90;;;;;;4389601;28;658900;-67
2023/06/22 09:31:40;;;;;;;10.88;8.32;;;28.50;99.90;;;;;;4383627;28;657824;-67
2023/06/22 09:34:28;;;;;;;11.50;8.38;;;28.60;99.90;;;;;;4377497;28;659405;-68
2023/06/22 09:37:17;;;;;;;11.27;8.18;;;28.50;99.90;;;;;;4379866;28;657686;-68
2023/06/22 09:40:08;;;;;;;14.25;8.52;;;28.40;99.90;;;;;;4392755;28;658256;-67
2023/06/22 09:42:56;;;;;;;9.30;7.50;;;28.40;99.90;;;;;;4349775;28;657759;-67
2023/06/22 09:45:43;;;;;;;9.77;7.40;;;28.40;99.90;;;;;;4382631;28;658222;-67
2023/06/22 09:48:30;;;;;;;11.13;7.82;;;28.30;99.90;;;;;;4372092;28;656597;-67
2023/06/22 09:51:18;;;;;;;9.73;7.85;;;28.90;99.90;;;;;;4382812;28;659266;-67
2023/06/22 09:54:07;;;;;;;10.88;8.02;;;29.40;99.90;;;;;;4368647;28;657072;-68
2023/06/22 09:56:54;;;;;;;12.60;7.55;;;30.00;99.90;;;;;;4382821;28;657672;-67
2023/06/22 09:59:42;;;;;;;12.07;7.90;;;30.70;95.40;;;;;;4368133;28;657863;-68
2023/06/22 10:02:29;;;;;;;12.93;7.72;;;30.80;91.80;;;;;;4391344;28;657213;-67
2023/06/22 10:05:17;;;;;;;11.33;7.17;;;31.10;90.90;;;;;;4367305;28;658134;-68
2023/06/22 10:08:04;;;;;;;9.27;6.68;;;31.50;88.60;;;;;;4377076;28;657349;-68
2023/06/22 10:10:53;;;;;;;8.53;6.53;;;30.90;74.80;;;;;;4361384;28;656630;-68
2023/06/22 10:13:40;;;;;;;9.13;6.50;;;29.80;79.00;;;;;;4362574;28;656582;-68
2023/06/22 10:16:31;;;;;;;9.98;6.65;;;29.30;82.60;;;;;;4390441;28;658053;-67
2023/06/22 10:19:19;;;;;;;10.30;6.68;;;28.60;86.20;;;;;;4367837;28;656827;-67
2023/06/22 10:22:06;;;;;;;8.45;6.10;;;28.20;92.30;;;;;;4368587;28;658892;-67
2023/06/22 10:24:53;;;;;;;7.53;5.80;;;28.80;94.60;;;;;;4393923;28;658016;-67
2023/06/22 10:27:42;;;;;;;9.70;6.35;;;29.60;91.00;;;;;;4373583;28;657030;-67
2023/06/22 10:30:29;;;;;;;8.90;6.68;;;29.60;81.40;;;;;;4383041;28;656470;-67
2023/06/22 10:33:17;;;;;;;10.48;6.22;;;30.20;84.50;;;;;;4355038;28;657603;-68
2023/06/22 10:36:05;;;;;;;7.43;6.03;;;30.30;78.60;;;;;;4383988;28;657286;-67
2023/06/22 10:38:53;;;;;;;7.68;6.32;;;30.50;73.30;;;;;;4362424;28;657418;-67
2023/06/22 10:41:40;;;;;;;7.35;6.10;;;30.50;72.70;;;;;;4369043;28;656717;-68
2023/06/22 10:44:29;;;;;;;7.88;5.97;;;30.50;71.60;;;;;;4387202;28;657809;-68
2023/06/22 10:47:16;;;;;;;9.70;6.07;;;30.40;68.80;;;;;;4368911;28;656983;-67
2023/06/22 10:50:04;;;;;;;11.18;6.78;;;30.20;76.90;;;;;;4380735;28;657369;-67
2023/06/22 10:52:51;;;;;;;7.60;6.50;;;30.10;80.00;;;;;;4361916;28;658273;-67
2023/06/22 10:55:38;;;;;;;7.97;6.10;;;30.60;71.70;;;;;;4385067;28;658102;-67
2023/06/22 10:58:26;;;;;;;8.25;6.45;;;30.80;71.60;;;;;;4363288;28;657093;-67
2023/06/22 11:01:15;;;;;;;8.20;6.43;;;30.70;66.20;;;;;;4383567;28;657658;-68
2023/06/22 11:04:02;;;;;;;8.60;6.43;;;30.70;65.80;;;;;;4358476;28;657966;-67
2023/06/22 11:06:49;;;;;;;11.20;6.68;;;31.20;72.40;;;;;;4372271;28;657119;-67
2023/06/22 11:09:38;;;;;;;9.60;6.50;;;31.70;67.00;;;;;;4363973;28;657633;-67
2023/06/22 11:12:25;;;;;;;7.05;5.95;;;32.10;63.20;;;;;;4378340;28;657147;-68
2023/06/22 11:15:12;;;;;;;10.05;6.40;;;32.20;59.80;;;;;;4382942;28;657636;-67
2023/06/22 11:18:02;;;;;;;8.75;6.07;;;32.80;62.10;;;;;;4382898;28;657779;-68
2023/06/22 11:20:49;;;;;;;7.82;6.35;;;33.10;56.40;;;;;;4384106;28;656348;-67
2023/06/22 11:23:36;;;;;;;10.90;5.75;;;32.60;56.20;;;;;;4358862;28;656588;-67
2023/06/22 11:26:23;;;;;;;6.75;5.68;;;32.60;56.70;;;;;;4382429;28;658395;-68
2023/06/22 11:29:10;;;;;;;8.52;5.93;;;31.80;52.30;;;;;;4363210;28;656575;-68
2023/06/22 11:31:58;;;;;;;8.85;6.30;;;31.90;54.40;;;;;;4378090;28;657621;-68
2023/06/22 11:34:47;;;;;;;8.23;6.07;;;32.30;53.30;;;;;;4373064;28;656985;-68
2023/06/22 11:37:34;;;;;;;7.50;6.13;;;31.70;53.00;;;;;;4382842;28;656785;-67
2023/06/22 11:40:22;;;;;;;8.00;5.93;;;32.10;55.70;;;;;;4356315;28;656570;-68
2023/06/22 11:43:10;;;;;;;10.13;5.95;;;32.40;55.70;;;;;;4389557;28;656178;-68
2023/06/22 11:45:57;;;;;;;9.85;6.28;;;32.10;55.30;;;;;;4362848;28;658597;-67
2023/06/22 11:48:45;;;;;;;7.10;5.40;;;32.50;56.20;;;;;;4378279;28;656686;-67
2023/06/22 11:51:34;;;;;;;7.20;6.18;;;32.80;52.60;;;;;;4356112;28;657435;-67
2023/06/22 11:54:21;;;;;;;7.22;6.00;;;32.70;55.10;;;;;;4369116;28;656511;-67
2023/06/22 11:57:08;;;;;;;7.93;5.78;;;33.20;52.00;;;;;;4376864;28;657591;-68
2023/06/22 11:59:55;;;;;;;9.45;6.00;;;33.40;52.10;;;;;;4357231;28;656118;-67
2023/06/22 12:02:43;;;;;;;7.63;6.03;;;32.60;49.30;;;;;;4378942;28;657163;-67
2023/06/22 12:05:30;;;;;;;7.30;5.90;;;32.10;53.60;;;;;;4374698;28;657328;-68
2023/06/22 12:08:19;;;;;;;7.90;5.95;;;32.60;56.90;;;;;;4379771;28;656901;-68
2023/06/22 12:11:06;;;;;;;7.10;5.93;;;33.20;52.70;;;;;;4359285;28;656593;-67
2023/06/22 12:13:53;;;;;;;7.57;6.22;;;33.20;52.90;;;;;;4377566;28;658314;-68
2023/06/22 12:16:40;;;;;;;7.70;5.93;;;33.70;51.70;;;;;;4358566;28;657394;-68
2023/06/22 12:19:28;;;;;;;8.05;5.88;;;34.00;50.10;;;;;;4380309;28;657353;-67
2023/06/22 12:22:15;;;;;;;8.13;6.03;;;33.90;49.20;;;;;;4372306;28;656318;-68
2023/06/22 12:25:04;;;;;;;12.23;6.18;;;33.60;51.60;;;;;;4373970;28;657849;-67
2023/06/22 12:27:52;;;;;;;8.63;6.20;;;34.00;48.10;;;;;;4362914;28;658227;-67
2023/06/22 12:30:39;;;;;;;9.52;5.90;;;33.80;51.10;;;;;;4379083;28;657296;-67
2023/06/22 12:33:26;;;;;;;10.43;6.50;;;33.70;49.50;;;;;;4353611;28;657187;-68
2023/06/22 12:36:13;;;;;;;8.63;6.35;;;33.30;47.40;;;;;;4386287;28;659099;-67
2023/06/22 12:39:00;;;;;;;11.55;6.97;;;32.40;49.10;;;;;;4360984;28;656621;-67
2023/06/22 12:41:49;;;;;;;8.95;7.30;;;31.90;51.00;;;;;;4384578;28;658154;-67
2023/06/22 12:44:36;;;;;;;11.07;6.63;;;31.60;52.90;;;;;;4371814;28;656903;-68
2023/06/22 12:47:23;;;;;;;9.88;6.85;;;31.90;54.60;;;;;;4387278;28;658866;-69
2023/06/22 12:50:11;;;;;;;11.23;6.97;;;31.60;52.40;;;;;;4365928;28;656928;-68
2023/06/22 12:52:58;;;;;;;10.00;7.13;;;31.80;52.30;;;;;;4380110;28;658537;-68
2023/06/22 12:55:45;;;;;;;12.25;7.63;;;31.60;52.80;;;;;;4373316;28;658302;-68
2023/06/22 12:58:34;;;;;;;10.32;6.90;;;31.20;53.60;;;;;;4375484;28;658789;-67
2023/06/22 13:01:22;;;;;;;9.73;7.10;;;31.40;52.70;;;;;;4363761;28;658100;-68
2023/06/22 13:04:11;;;;;;;12.82;6.68;;;30.80;56.10;;;;;;4374111;28;656939;-68
2023/06/22 13:06:58;;;;;;;10.00;6.47;;;31.40;55.70;;;;;;4360301;28;658995;-68
2023/06/22 13:09:46;;;;;;;8.07;6.70;;;31.70;55.30;;;;;;4369842;28;657535;-69
2023/06/22 13:12:33;;;;;;;15.32;7.05;;;32.30;54.40;;;;;;4384190;28;657366;-67
2023/06/22 13:15:22;;;;;;;9.15;7.00;;;33.00;52.00;;;;;;4367817;28;658286;-68
2023/06/22 13:18:09;;;;;;;12.82;7.35;;;32.30;50.70;;;;;;4375227;28;656868;-68
2023/06/22 13:20:57;;;;;;;9.80;6.95;;;32.40;50.80;;;;;;4355037;28;657654;-68
2023/06/22 13:23:45;;;;;;;10.02;7.72;;;31.40;51.60;;;;;;4363942;28;656613;-68
2023/06/22 13:26:33;;;;;;;14.55;8.00;;;31.40;53.50;;;;;;4376918;28;658227;-69
2023/06/22 13:29:20;;;;;;;10.85;7.53;;;31.50;52.50;;;;;;4356704;28;658154;-68
2023/06/22 13:32:09;;;;;;;10.10;8.10;;;31.90;53.50;;;;;;4385358;28;657923;-68
2023/06/22 13:34:56;;;;;;;13.30;7.23;;;32.70;51.10;;;;;;4361066;28;658887;-68
2023/06/22 13:37:44;;;;;;;10.48;7.35;;;32.80;51.60;;;;;;4384601;28;658022;-68
2023/06/22 13:40:31;;;;;;;9.82;7.70;;;33.00;51.20;;;;;;4363155;28;657874;-69
2023/06/22 13:43:18;;;;;;;12.57;8.23;;;32.70;49.60;;;;;;4383349;28;657738;-68
2023/06/22 13:46:05;;;;;;;11.73;7.93;;;32.90;51.40;;;;;;4361068;28;658119;-69
2023/06/22 13:48:54;;;;;;;14.93;7.72;;;33.20;50.50;;;;;;4377169;28;659065;-67
2023/06/22 13:51:41;;;;;;;11.20;7.37;;;33.50;47.90;;;;;;4361830;28;657400;-68
2023/06/22 13:54:28;;;;;;;13.90;7.55;;;32.80;49.60;;;;;;4388647;28;658156;-67
2023/06/22 13:57:16;;;;;;;14.00;7.47;;;32.50;51.50;;;;;;4358173;28;657552;-67
2023/06/22 14:00:04;;;;;;;10.73;7.68;;;33.20;54.10;;;;;;4384493;28;658346;-67
2023/06/22 14:02:52;;;;;;;14.13;7.38;;;34.00;51.80;;;;;;4360768;28;657666;-67
2023/06/22 14:05:42;;;;;;;10.98;7.63;;;34.40;46.90;;;;;;4378431;28;658957;-67
2023/06/22 14:08:29;;;;;;;11.75;6.95;;;34.00;46.70;;;;;;4355791;28;658011;-67
2023/06/22 14:11:16;;;;;;;9.45;6.53;;;33.70;49.60;;;;;;4359275;28;657421;-67